sensor_id;sensor_type;location;lat;lon;timestamp;P1;durP1;ratioP1;P2;durP2;ratioP2
19260;SDS011;9764;48.114;11.670;2023-03-13T00:01:56;1.25;;;1.13;;
19260;SDS011;9764;48.114;11.670;2023-03-13T00:04:24;2.30;;;1.70;;
19260;SDS011;9764;48.114;11.670;2023-03-13T00:06:53;1.35;;;1.25;;
19260;SDS011;9764;48.114;11.670;2023-03-13T00:09:21;1.77;;;1.30;;
19260;SDS011;9764;48.114;11.670;2023-03-13T00:11:49;1.88;;;1.30;;
19260;SDS011;9764;48.114;11.670;2023-03-13T00:14:18;1.70;;;1.08;;
19260;SDS011;9764;48.114;11.670;2023-03-13T00:16:47;1.58;;;1.42;;
19260;SDS011;9764;48.114;11.670;2023-03-13T00:19:16;1.23;;;1.13;;
19260;SDS011;9764;48.114;11.670;2023-03-13T00:21:44;2.10;;;1.38;;
19260;SDS011;9764;48.114;11.670;2023-03-13T00:24:12;1.70;;;1.50;;
19260;SDS011;9764;48.114;11.670;2023-03-13T00:26:41;2.10;;;1.10;;
19260;SDS011;9764;48.114;11.670;2023-03-13T00:29:10;1.98;;;1.27;;
19260;SDS011;9764;48.114;11.670;2023-03-13T00:31:38;2.17;;;1.45;;
19260;SDS011;9764;48.114;11.670;2023-03-13T00:34:09;2.08;;;1.48;;
19260;SDS011;9764;48.114;11.670;2023-03-13T00:36:37;1.40;;;1.10;;
19260;SDS011;9764;48.114;11.670;2023-03-13T00:39:05;2.10;;;1.35;;
19260;SDS011;9764;48.114;11.670;2023-03-13T00:41:34;1.35;;;1.00;;
19260;SDS011;9764;48.114;11.670;2023-03-13T00:44:03;1.58;;;1.08;;
19260;SDS011;9764;48.114;11.670;2023-03-13T00:46:32;2.10;;;1.23;;
19260;SDS011;9764;48.114;11.670;2023-03-13T00:49:00;1.45;;;1.20;;
19260;SDS011;9764;48.114;11.670;2023-03-13T00:51:30;1.92;;;1.20;;
19260;SDS011;9764;48.114;11.670;2023-03-13T00:53:59;1.33;;;1.10;;
19260;SDS011;9764;48.114;11.670;2023-03-13T00:56:27;1.15;;;1.05;;
19260;SDS011;9764;48.114;11.670;2023-03-13T00:58:58;1.33;;;1.08;;
19260;SDS011;9764;48.114;11.670;2023-03-13T01:01:27;1.55;;;1.20;;
19260;SDS011;9764;48.114;11.670;2023-03-13T01:03:57;2.03;;;1.15;;
19260;SDS011;9764;48.114;11.670;2023-03-13T01:06:31;1.45;;;1.13;;
19260;SDS011;9764;48.114;11.670;2023-03-13T01:09:02;2.75;;;1.48;;
19260;SDS011;9764;48.114;11.670;2023-03-13T01:11:33;2.10;;;1.30;;
19260;SDS011;9764;48.114;11.670;2023-03-13T01:14:03;1.48;;;0.98;;
19260;SDS011;9764;48.114;11.670;2023-03-13T01:16:33;1.25;;;1.00;;
19260;SDS011;9764;48.114;11.670;2023-03-13T01:19:03;1.10;;;1.00;;
19260;SDS011;9764;48.114;11.670;2023-03-13T01:21:34;1.50;;;1.33;;
19260;SDS011;9764;48.114;11.670;2023-03-13T01:24:03;1.70;;;1.20;;
19260;SDS011;9764;48.114;11.670;2023-03-13T01:26:32;1.65;;;1.13;;
19260;SDS011;9764;48.114;11.670;2023-03-13T01:29:00;0.93;;;0.82;;
19260;SDS011;9764;48.114;11.670;2023-03-13T01:31:29;1.63;;;1.10;;
19260;SDS011;9764;48.114;11.670;2023-03-13T01:34:00;1.48;;;1.20;;
19260;SDS011;9764;48.114;11.670;2023-03-13T01:36:30;1.17;;;1.00;;
19260;SDS011;9764;48.114;11.670;2023-03-13T01:39:00;1.92;;;1.10;;
19260;SDS011;9764;48.114;11.670;2023-03-13T01:41:29;1.27;;;1.00;;
19260;SDS011;9764;48.114;11.670;2023-03-13T01:43:57;1.48;;;1.25;;
19260;SDS011;9764;48.114;11.670;2023-03-13T01:46:31;1.52;;;1.08;;
19260;SDS011;9764;48.114;11.670;2023-03-13T01:49:01;1.98;;;1.13;;
19260;SDS011;9764;48.114;11.670;2023-03-13T01:51:38;1.10;;;0.90;;
19260;SDS011;9764;48.114;11.670;2023-03-13T01:54:12;1.23;;;0.88;;
19260;SDS011;9764;48.114;11.670;2023-03-13T01:56:46;1.38;;;1.00;;
19260;SDS011;9764;48.114;11.670;2023-03-13T01:59:19;1.45;;;0.90;;
19260;SDS011;9764;48.114;11.670;2023-03-13T02:01:53;2.03;;;1.00;;
19260;SDS011;9764;48.114;11.670;2023-03-13T02:04:25;1.30;;;0.90;;
19260;SDS011;9764;48.114;11.670;2023-03-13T02:06:56;0.93;;;0.82;;
19260;SDS011;9764;48.114;11.670;2023-03-13T02:09:28;1.17;;;0.90;;
19260;SDS011;9764;48.114;11.670;2023-03-13T02:12:01;1.13;;;1.00;;
19260;SDS011;9764;48.114;11.670;2023-03-13T02:14:34;1.00;;;0.90;;
19260;SDS011;9764;48.114;11.670;2023-03-13T02:17:05;1.27;;;1.00;;
19260;SDS011;9764;48.114;11.670;2023-03-13T02:19:35;1.10;;;1.00;;
19260;SDS011;9764;48.114;11.670;2023-03-13T02:22:09;1.48;;;1.05;;
19260;SDS011;9764;48.114;11.670;2023-03-13T02:24:48;1.77;;;0.95;;
19260;SDS011;9764;48.114;11.670;2023-03-13T02:27:22;1.48;;;1.10;;
19260;SDS011;9764;48.114;11.670;2023-03-13T02:29:51;1.48;;;1.08;;
19260;SDS011;9764;48.114;11.670;2023-03-13T02:32:20;1.33;;;1.02;;
19260;SDS011;9764;48.114;11.670;2023-03-13T02:34:50;1.17;;;1.00;;
19260;SDS011;9764;48.114;11.670;2023-03-13T02:37:22;1.05;;;0.80;;
19260;SDS011;9764;48.114;11.670;2023-03-13T02:39:53;1.35;;;0.90;;
19260;SDS011;9764;48.114;11.670;2023-03-13T02:42:26;1.50;;;0.90;;
19260;SDS011;9764;48.114;11.670;2023-03-13T02:44:56;2.67;;;1.02;;
19260;SDS011;9764;48.114;11.670;2023-03-13T02:47:24;0.82;;;0.80;;
19260;SDS011;9764;48.114;11.670;2023-03-13T02:49:53;1.23;;;1.08;;
19260;SDS011;9764;48.114;11.670;2023-03-13T02:52:22;2.10;;;0.80;;
19260;SDS011;9764;48.114;11.670;2023-03-13T02:54:54;2.97;;;1.13;;
19260;SDS011;9764;48.114;11.670;2023-03-13T02:57:27;1.52;;;1.20;;
19260;SDS011;9764;48.114;11.670;2023-03-13T02:59:57;1.17;;;0.80;;
19260;SDS011;9764;48.114;11.670;2023-03-13T03:02:26;1.27;;;0.98;;
19260;SDS011;9764;48.114;11.670;2023-03-13T03:04:54;1.55;;;0.90;;
19260;SDS011;9764;48.114;11.670;2023-03-13T03:07:22;1.02;;;0.90;;
19260;SDS011;9764;48.114;11.670;2023-03-13T03:09:51;1.08;;;0.90;;
19260;SDS011;9764;48.114;11.670;2023-03-13T03:12:19;0.82;;;0.82;;
19260;SDS011;9764;48.114;11.670;2023-03-13T03:14:49;1.38;;;0.80;;
19260;SDS011;9764;48.114;11.670;2023-03-13T03:17:19;1.25;;;0.95;;
19260;SDS011;9764;48.114;11.670;2023-03-13T03:19:47;0.90;;;0.75;;
19260;SDS011;9764;48.114;11.670;2023-03-13T03:22:15;1.20;;;0.90;;
19260;SDS011;9764;48.114;11.670;2023-03-13T03:24:44;1.17;;;1.00;;
19260;SDS011;9764;48.114;11.670;2023-03-13T03:27:12;1.23;;;0.95;;
19260;SDS011;9764;48.114;11.670;2023-03-13T03:29:46;1.33;;;0.90;;
19260;SDS011;9764;48.114;11.670;2023-03-13T03:32:16;1.10;;;0.90;;
19260;SDS011;9764;48.114;11.670;2023-03-13T03:34:44;0.70;;;0.70;;
19260;SDS011;9764;48.114;11.670;2023-03-13T03:37:12;1.05;;;0.85;;
19260;SDS011;9764;48.114;11.670;2023-03-13T03:39:41;0.98;;;0.95;;
19260;SDS011;9764;48.114;11.670;2023-03-13T03:42:10;1.75;;;1.00;;
19260;SDS011;9764;48.114;11.670;2023-03-13T03:44:38;0.82;;;0.80;;
19260;SDS011;9764;48.114;11.670;2023-03-13T03:47:08;1.17;;;1.08;;
19260;SDS011;9764;48.114;11.670;2023-03-13T03:49:42;0.85;;;0.85;;
19260;SDS011;9764;48.114;11.670;2023-03-13T03:52:11;0.90;;;0.80;;
19260;SDS011;9764;48.114;11.670;2023-03-13T03:54:41;1.27;;;0.82;;
19260;SDS011;9764;48.114;11.670;2023-03-13T03:57:11;2.28;;;0.90;;
19260;SDS011;9764;48.114;11.670;2023-03-13T03:59:42;1.27;;;1.00;;
19260;SDS011;9764;48.114;11.670;2023-03-13T04:02:10;1.27;;;0.82;;
19260;SDS011;9764;48.114;11.670;2023-03-13T04:04:42;0.95;;;0.80;;
19260;SDS011;9764;48.114;11.670;2023-03-13T04:07:18;0.68;;;0.68;;
19260;SDS011;9764;48.114;11.670;2023-03-13T04:09:47;0.70;;;0.70;;
19260;SDS011;9764;48.114;11.670;2023-03-13T04:12:24;1.00;;;0.80;;
19260;SDS011;9764;48.114;11.670;2023-03-13T04:14:54;1.48;;;0.90;;
19260;SDS011;9764;48.114;11.670;2023-03-13T04:17:22;1.00;;;0.80;;
19260;SDS011;9764;48.114;11.670;2023-03-13T04:19:52;0.88;;;0.80;;
19260;SDS011;9764;48.114;11.670;2023-03-13T04:22:21;1.33;;;0.82;;
19260;SDS011;9764;48.114;11.670;2023-03-13T04:24:54;0.80;;;0.75;;
19260;SDS011;9764;48.114;11.670;2023-03-13T04:27:23;0.60;;;0.60;;
19260;SDS011;9764;48.114;11.670;2023-03-13T04:29:51;0.75;;;0.70;;
19260;SDS011;9764;48.114;11.670;2023-03-13T04:32:38;1.23;;;0.90;;
19260;SDS011;9764;48.114;11.670;2023-03-13T04:35:32;0.88;;;0.70;;
19260;SDS011;9764;48.114;11.670;2023-03-13T04:38:36;0.90;;;0.73;;
19260;SDS011;9764;48.114;11.670;2023-03-13T04:41:24;0.82;;;0.73;;
19260;SDS011;9764;48.114;11.670;2023-03-13T04:44:15;0.90;;;0.55;;
19260;SDS011;9764;48.114;11.670;2023-03-13T04:46:57;1.70;;;0.90;;
19260;SDS011;9764;48.114;11.670;2023-03-13T04:49:37;1.23;;;0.70;;
19260;SDS011;9764;48.114;11.670;2023-03-13T04:52:25;1.00;;;0.70;;
19260;SDS011;9764;48.114;11.670;2023-03-13T04:54:53;0.50;;;0.50;;
19260;SDS011;9764;48.114;11.670;2023-03-13T04:57:37;1.08;;;0.68;;
19260;SDS011;9764;48.114;11.670;2023-03-13T05:00:25;1.25;;;0.70;;
19260;SDS011;9764;48.114;11.670;2023-03-13T05:03:19;0.98;;;0.90;;
19260;SDS011;9764;48.114;11.670;2023-03-13T05:06:07;1.48;;;0.80;;
19260;SDS011;9764;48.114;11.670;2023-03-13T05:08:54;0.73;;;0.63;;
19260;SDS011;9764;48.114;11.670;2023-03-13T05:11:51;0.95;;;0.60;;
19260;SDS011;9764;48.114;11.670;2023-03-13T05:14:41;0.80;;;0.70;;
19260;SDS011;9764;48.114;11.670;2023-03-13T05:17:33;0.70;;;0.60;;
19260;SDS011;9764;48.114;11.670;2023-03-13T05:20:19;0.70;;;0.70;;
19260;SDS011;9764;48.114;11.670;2023-03-13T05:23:08;0.82;;;0.75;;
19260;SDS011;9764;48.114;11.670;2023-03-13T05:26:00;0.73;;;0.65;;
19260;SDS011;9764;48.114;11.670;2023-03-13T05:28:29;0.60;;;0.60;;
19260;SDS011;9764;48.114;11.670;2023-03-13T05:31:12;0.70;;;0.70;;
19260;SDS011;9764;48.114;11.670;2023-03-13T05:34:00;0.70;;;0.60;;
19260;SDS011;9764;48.114;11.670;2023-03-13T05:36:47;0.65;;;0.63;;
19260;SDS011;9764;48.114;11.670;2023-03-13T05:39:33;1.00;;;0.80;;
19260;SDS011;9764;48.114;11.670;2023-03-13T05:42:26;1.25;;;0.80;;
19260;SDS011;9764;48.114;11.670;2023-03-13T05:45:18;1.00;;;0.70;;
19260;SDS011;9764;48.114;11.670;2023-03-13T05:47:56;0.75;;;0.70;;
19260;SDS011;9764;48.114;11.670;2023-03-13T05:50:54;0.90;;;0.70;;
19260;SDS011;9764;48.114;11.670;2023-03-13T05:53:41;0.90;;;0.68;;
19260;SDS011;9764;48.114;11.670;2023-03-13T05:56:23;0.60;;;0.60;;
19260;SDS011;9764;48.114;11.670;2023-03-13T05:59:15;0.90;;;0.52;;
19260;SDS011;9764;48.114;11.670;2023-03-13T06:02:11;0.75;;;0.50;;
19260;SDS011;9764;48.114;11.670;2023-03-13T06:04:43;0.52;;;0.52;;
19260;SDS011;9764;48.114;11.670;2023-03-13T06:07:12;0.73;;;0.65;;
19260;SDS011;9764;48.114;11.670;2023-03-13T06:09:41;0.70;;;0.70;;
19260;SDS011;9764;48.114;11.670;2023-03-13T06:12:09;1.10;;;0.65;;
19260;SDS011;9764;48.114;11.670;2023-03-13T06:14:39;0.60;;;0.60;;
19260;SDS011;9764;48.114;11.670;2023-03-13T06:17:19;0.60;;;0.60;;
19260;SDS011;9764;48.114;11.670;2023-03-13T06:19:48;0.60;;;0.60;;
19260;SDS011;9764;48.114;11.670;2023-03-13T06:22:16;1.83;;;0.80;;
19260;SDS011;9764;48.114;11.670;2023-03-13T06:24:45;0.55;;;0.55;;
19260;SDS011;9764;48.114;11.670;2023-03-13T06:27:15;0.82;;;0.50;;
19260;SDS011;9764;48.114;11.670;2023-03-13T06:29:45;0.90;;;0.70;;
19260;SDS011;9764;48.114;11.670;2023-03-13T06:32:13;0.63;;;0.63;;
19260;SDS011;9764;48.114;11.670;2023-03-13T06:34:41;0.50;;;0.50;;
19260;SDS011;9764;48.114;11.670;2023-03-13T06:37:10;0.52;;;0.52;;
19260;SDS011;9764;48.114;11.670;2023-03-13T06:39:38;0.60;;;0.60;;
19260;SDS011;9764;48.114;11.670;2023-03-13T06:42:07;0.63;;;0.60;;
19260;SDS011;9764;48.114;11.670;2023-03-13T06:44:35;1.27;;;0.50;;
19260;SDS011;9764;48.114;11.670;2023-03-13T06:47:05;0.63;;;0.57;;
19260;SDS011;9764;48.114;11.670;2023-03-13T06:49:34;1.27;;;0.68;;
19260;SDS011;9764;48.114;11.670;2023-03-13T06:52:03;0.60;;;0.60;;
19260;SDS011;9764;48.114;11.670;2023-03-13T06:54:31;0.70;;;0.60;;
19260;SDS011;9764;48.114;11.670;2023-03-13T06:56:59;0.80;;;0.60;;
19260;SDS011;9764;48.114;11.670;2023-03-13T06:59:28;1.05;;;0.70;;
19260;SDS011;9764;48.114;11.670;2023-03-13T07:01:56;0.50;;;0.50;;
19260;SDS011;9764;48.114;11.670;2023-03-13T07:04:26;0.50;;;0.50;;
19260;SDS011;9764;48.114;11.670;2023-03-13T07:06:54;1.40;;;0.63;;
19260;SDS011;9764;48.114;11.670;2023-03-13T07:09:22;1.08;;;0.45;;
19260;SDS011;9764;48.114;11.670;2023-03-13T07:11:51;0.60;;;0.60;;
19260;SDS011;9764;48.114;11.670;2023-03-13T07:14:19;0.60;;;0.60;;
19260;SDS011;9764;48.114;11.670;2023-03-13T07:16:47;0.50;;;0.50;;
19260;SDS011;9764;48.114;11.670;2023-03-13T07:19:16;0.50;;;0.50;;
19260;SDS011;9764;48.114;11.670;2023-03-13T07:21:45;0.70;;;0.60;;
19260;SDS011;9764;48.114;11.670;2023-03-13T07:24:15;1.05;;;0.57;;
19260;SDS011;9764;48.114;11.670;2023-03-13T07:26:43;0.77;;;0.60;;
19260;SDS011;9764;48.114;11.670;2023-03-13T07:29:30;0.68;;;0.60;;
19260;SDS011;9764;48.114;11.670;2023-03-13T07:31:58;0.70;;;0.70;;
19260;SDS011;9764;48.114;11.670;2023-03-13T07:34:26;0.60;;;0.60;;
19260;SDS011;9764;48.114;11.670;2023-03-13T07:36:56;0.63;;;0.60;;
19260;SDS011;9764;48.114;11.670;2023-03-13T07:39:24;0.60;;;0.60;;
19260;SDS011;9764;48.114;11.670;2023-03-13T07:41:53;0.60;;;0.60;;
19260;SDS011;9764;48.114;11.670;2023-03-13T07:44:21;0.50;;;0.50;;
19260;SDS011;9764;48.114;11.670;2023-03-13T07:46:49;0.88;;;0.50;;
19260;SDS011;9764;48.114;11.670;2023-03-13T07:49:17;0.47;;;0.45;;
19260;SDS011;9764;48.114;11.670;2023-03-13T07:51:46;0.88;;;0.60;;
19260;SDS011;9764;48.114;11.670;2023-03-13T07:54:17;1.08;;;0.57;;
19260;SDS011;9764;48.114;11.670;2023-03-13T07:56:46;0.50;;;0.50;;
19260;SDS011;9764;48.114;11.670;2023-03-13T07:59:14;1.45;;;0.57;;
19260;SDS011;9764;48.114;11.670;2023-03-13T08:01:42;0.40;;;0.40;;
19260;SDS011;9764;48.114;11.670;2023-03-13T08:04:11;0.50;;;0.50;;
19260;SDS011;9764;48.114;11.670;2023-03-13T08:06:40;0.60;;;0.60;;
19260;SDS011;9764;48.114;11.670;2023-03-13T08:09:08;0.45;;;0.45;;
19260;SDS011;9764;48.114;11.670;2023-03-13T08:11:38;0.40;;;0.40;;
19260;SDS011;9764;48.114;11.670;2023-03-13T08:14:09;1.05;;;0.70;;
19260;SDS011;9764;48.114;11.670;2023-03-13T08:16:38;0.40;;;0.40;;
19260;SDS011;9764;48.114;11.670;2023-03-13T08:19:07;0.50;;;0.50;;
19260;SDS011;9764;48.114;11.670;2023-03-13T08:21:36;0.40;;;0.40;;
19260;SDS011;9764;48.114;11.670;2023-03-13T08:24:05;0.50;;;0.50;;
19260;SDS011;9764;48.114;11.670;2023-03-13T08:26:36;0.70;;;0.70;;
19260;SDS011;9764;48.114;11.670;2023-03-13T08:29:08;0.52;;;0.52;;
19260;SDS011;9764;48.114;11.670;2023-03-13T08:31:41;0.73;;;0.52;;
19260;SDS011;9764;48.114;11.670;2023-03-13T08:34:11;0.82;;;0.52;;
19260;SDS011;9764;48.114;11.670;2023-03-13T08:36:40;0.47;;;0.47;;
19260;SDS011;9764;48.114;11.670;2023-03-13T08:39:09;0.40;;;0.40;;
19260;SDS011;9764;48.114;11.670;2023-03-13T08:41:40;0.70;;;0.50;;
19260;SDS011;9764;48.114;11.670;2023-03-13T08:44:09;0.80;;;0.68;;
19260;SDS011;9764;48.114;11.670;2023-03-13T08:46:39;0.50;;;0.45;;
19260;SDS011;9764;48.114;11.670;2023-03-13T08:49:09;0.40;;;0.40;;
19260;SDS011;9764;48.114;11.670;2023-03-13T08:51:39;0.43;;;0.43;;
19260;SDS011;9764;48.114;11.670;2023-03-13T08:54:07;0.77;;;0.50;;
19260;SDS011;9764;48.114;11.670;2023-03-13T08:56:36;0.45;;;0.45;;
19260;SDS011;9764;48.114;11.670;2023-03-13T08:59:05;0.63;;;0.63;;
19260;SDS011;9764;48.114;11.670;2023-03-13T09:01:34;0.40;;;0.40;;
19260;SDS011;9764;48.114;11.670;2023-03-13T09:04:03;0.47;;;0.40;;
19260;SDS011;9764;48.114;11.670;2023-03-13T09:06:32;1.15;;;0.60;;
19260;SDS011;9764;48.114;11.670;2023-03-13T09:09:01;0.40;;;0.40;;
19260;SDS011;9764;48.114;11.670;2023-03-13T09:11:31;1.30;;;0.60;;
19260;SDS011;9764;48.114;11.670;2023-03-13T09:13:59;0.50;;;0.43;;
19260;SDS011;9764;48.114;11.670;2023-03-13T09:16:29;0.50;;;0.50;;
19260;SDS011;9764;48.114;11.670;2023-03-13T09:18:59;0.60;;;0.50;;
19260;SDS011;9764;48.114;11.670;2023-03-13T09:21:28;0.70;;;0.60;;
19260;SDS011;9764;48.114;11.670;2023-03-13T09:23:57;0.68;;;0.68;;
19260;SDS011;9764;48.114;11.670;2023-03-13T09:26:26;0.45;;;0.45;;
19260;SDS011;9764;48.114;11.670;2023-03-13T09:28:55;0.95;;;0.40;;
19260;SDS011;9764;48.114;11.670;2023-03-13T09:31:24;0.80;;;0.80;;
19260;SDS011;9764;48.114;11.670;2023-03-13T09:33:56;0.63;;;0.52;;
19260;SDS011;9764;48.114;11.670;2023-03-13T09:36:25;0.65;;;0.65;;
19260;SDS011;9764;48.114;11.670;2023-03-13T09:38:54;1.63;;;0.88;;
19260;SDS011;9764;48.114;11.670;2023-03-13T09:41:25;0.60;;;0.60;;
19260;SDS011;9764;48.114;11.670;2023-03-13T09:43:59;0.65;;;0.60;;
19260;SDS011;9764;48.114;11.670;2023-03-13T09:46:34;0.70;;;0.70;;
19260;SDS011;9764;48.114;11.670;2023-03-13T09:49:09;0.63;;;0.60;;
19260;SDS011;9764;48.114;11.670;2023-03-13T09:51:48;0.50;;;0.50;;
19260;SDS011;9764;48.114;11.670;2023-03-13T09:54:23;1.77;;;0.90;;
19260;SDS011;9764;48.114;11.670;2023-03-13T09:56:55;0.70;;;0.70;;
19260;SDS011;9764;48.114;11.670;2023-03-13T09:59:28;0.80;;;0.80;;
19260;SDS011;9764;48.114;11.670;2023-03-13T10:02:02;1.30;;;0.65;;
19260;SDS011;9764;48.114;11.670;2023-03-13T10:04:44;0.60;;;0.60;;
19260;SDS011;9764;48.114;11.670;2023-03-13T10:07:18;2.17;;;0.60;;
19260;SDS011;9764;48.114;11.670;2023-03-13T10:09:47;0.70;;;0.70;;
19260;SDS011;9764;48.114;11.670;2023-03-13T10:12:16;0.77;;;0.77;;
19260;SDS011;9764;48.114;11.670;2023-03-13T10:14:50;0.60;;;0.60;;
19260;SDS011;9764;48.114;11.670;2023-03-13T10:17:40;0.63;;;0.63;;
19260;SDS011;9764;48.114;11.670;2023-03-13T10:20:15;0.70;;;0.70;;
19260;SDS011;9764;48.114;11.670;2023-03-13T10:22:49;1.65;;;0.70;;
19260;SDS011;9764;48.114;11.670;2023-03-13T10:25:24;0.63;;;0.63;;
19260;SDS011;9764;48.114;11.670;2023-03-13T10:27:56;0.65;;;0.60;;
19260;SDS011;9764;48.114;11.670;2023-03-13T10:30:26;0.70;;;0.70;;
19260;SDS011;9764;48.114;11.670;2023-03-13T10:32:56;0.75;;;0.70;;
19260;SDS011;9764;48.114;11.670;2023-03-13T10:35:32;0.50;;;0.50;;
19260;SDS011;9764;48.114;11.670;2023-03-13T10:38:03;0.60;;;0.60;;
19260;SDS011;9764;48.114;11.670;2023-03-13T10:40:33;0.77;;;0.70;;
19260;SDS011;9764;48.114;11.670;2023-03-13T10:43:03;0.63;;;0.55;;
19260;SDS011;9764;48.114;11.670;2023-03-13T10:45:34;0.93;;;0.82;;
19260;SDS011;9764;48.114;11.670;2023-03-13T10:48:10;1.40;;;0.80;;
19260;SDS011;9764;48.114;11.670;2023-03-13T10:50:43;0.60;;;0.55;;
19260;SDS011;9764;48.114;11.670;2023-03-13T10:53:23;1.30;;;0.70;;
19260;SDS011;9764;48.114;11.670;2023-03-13T10:55:59;0.82;;;0.60;;
19260;SDS011;9764;48.114;11.670;2023-03-13T10:58:36;0.55;;;0.55;;
19260;SDS011;9764;48.114;11.670;2023-03-13T11:01:17;1.35;;;0.75;;
19260;SDS011;9764;48.114;11.670;2023-03-13T11:03:49;0.63;;;0.60;;
19260;SDS011;9764;48.114;11.670;2023-03-13T11:06:23;1.00;;;0.60;;
19260;SDS011;9764;48.114;11.670;2023-03-13T11:08:58;0.90;;;0.85;;
19260;SDS011;9764;48.114;11.670;2023-03-13T11:11:30;0.43;;;0.40;;
19260;SDS011;9764;48.114;11.670;2023-03-13T11:14:12;0.40;;;0.40;;
19260;SDS011;9764;48.114;11.670;2023-03-13T11:16:45;0.55;;;0.43;;
19260;SDS011;9764;48.114;11.670;2023-03-13T11:19:19;0.60;;;0.57;;
19260;SDS011;9764;48.114;11.670;2023-03-13T11:22:02;0.50;;;0.50;;
19260;SDS011;9764;48.114;11.670;2023-03-13T11:24:48;0.63;;;0.57;;
19260;SDS011;9764;48.114;11.670;2023-03-13T11:27:23;0.60;;;0.60;;
19260;SDS011;9764;48.114;11.670;2023-03-13T11:30:02;0.93;;;0.70;;
19260;SDS011;9764;48.114;11.670;2023-03-13T11:32:40;0.60;;;0.60;;
19260;SDS011;9764;48.114;11.670;2023-03-13T11:35:17;0.50;;;0.50;;
19260;SDS011;9764;48.114;11.670;2023-03-13T11:37:56;0.60;;;0.60;;
19260;SDS011;9764;48.114;11.670;2023-03-13T11:40:27;1.00;;;0.50;;
19260;SDS011;9764;48.114;11.670;2023-03-13T11:45:58;0.47;;;0.47;;
19260;SDS011;9764;48.114;11.670;2023-03-13T11:48:45;1.85;;;0.70;;
19260;SDS011;9764;48.114;11.670;2023-03-13T11:51:25;1.40;;;0.70;;
19260;SDS011;9764;48.114;11.670;2023-03-13T11:54:04;0.68;;;0.65;;
19260;SDS011;9764;48.114;11.670;2023-03-13T11:56:46;0.98;;;0.70;;
19260;SDS011;9764;48.114;11.670;2023-03-13T11:59:23;0.60;;;0.60;;
19260;SDS011;9764;48.114;11.670;2023-03-13T12:02:04;0.63;;;0.50;;
19260;SDS011;9764;48.114;11.670;2023-03-13T12:04:45;0.70;;;0.70;;
19260;SDS011;9764;48.114;11.670;2023-03-13T12:07:22;0.60;;;0.60;;
19260;SDS011;9764;48.114;11.670;2023-03-13T12:09:58;0.93;;;0.70;;
19260;SDS011;9764;48.114;11.670;2023-03-13T12:12:32;0.85;;;0.60;;
19260;SDS011;9764;48.114;11.670;2023-03-13T12:15:11;0.82;;;0.75;;
19260;SDS011;9764;48.114;11.670;2023-03-13T12:17:47;1.85;;;0.82;;
19260;SDS011;9764;48.114;11.670;2023-03-13T12:20:19;0.80;;;0.70;;
19260;SDS011;9764;48.114;11.670;2023-03-13T12:22:54;0.82;;;0.70;;
19260;SDS011;9764;48.114;11.670;2023-03-13T12:25:33;1.05;;;0.75;;
19260;SDS011;9764;48.114;11.670;2023-03-13T12:28:10;0.95;;;0.80;;
19260;SDS011;9764;48.114;11.670;2023-03-13T12:30:51;1.50;;;0.70;;
19260;SDS011;9764;48.114;11.670;2023-03-13T12:33:25;0.73;;;0.73;;
19260;SDS011;9764;48.114;11.670;2023-03-13T12:36:00;2.05;;;0.82;;
19260;SDS011;9764;48.114;11.670;2023-03-13T12:38:36;0.73;;;0.60;;
19260;SDS011;9764;48.114;11.670;2023-03-13T12:41:14;1.27;;;0.95;;
19260;SDS011;9764;48.114;11.670;2023-03-13T12:43:48;1.50;;;0.70;;
19260;SDS011;9764;48.114;11.670;2023-03-13T12:46:35;1.38;;;0.55;;
19260;SDS011;9764;48.114;11.670;2023-03-13T12:49:12;0.90;;;0.70;;
19260;SDS011;9764;48.114;11.670;2023-03-13T12:55:21;1.30;;;0.93;;
19260;SDS011;9764;48.114;11.670;2023-03-13T12:58:12;0.98;;;0.90;;
19260;SDS011;9764;48.114;11.670;2023-03-13T13:01:01;1.92;;;0.90;;
19260;SDS011;9764;48.114;11.670;2023-03-13T13:03:33;2.05;;;1.02;;
19260;SDS011;9764;48.114;11.670;2023-03-13T13:06:05;1.00;;;0.90;;
19260;SDS011;9764;48.114;11.670;2023-03-13T13:08:36;1.10;;;0.73;;
19260;SDS011;9764;48.114;11.670;2023-03-13T13:17:46;0.93;;;0.80;;
19260;SDS011;9764;48.114;11.670;2023-03-13T13:20:35;1.02;;;0.88;;
19260;SDS011;9764;48.114;11.670;2023-03-13T13:32:30;2.22;;;0.90;;
19260;SDS011;9764;48.114;11.670;2023-03-13T13:35:01;1.88;;;0.90;;
19260;SDS011;9764;48.114;11.670;2023-03-13T13:37:32;1.10;;;0.90;;
19260;SDS011;9764;48.114;11.670;2023-03-13T13:40:18;1.92;;;0.93;;
19260;SDS011;9764;48.114;11.670;2023-03-13T13:42:54;1.10;;;0.75;;
19260;SDS011;9764;48.114;11.670;2023-03-13T13:45:24;0.85;;;0.75;;
19260;SDS011;9764;48.114;11.670;2023-03-13T13:48:14;1.17;;;0.90;;
19260;SDS011;9764;48.114;11.670;2023-03-13T13:53:52;1.45;;;0.90;;
19260;SDS011;9764;48.114;11.670;2023-03-13T13:56:29;2.83;;;0.95;;
19260;SDS011;9764;48.114;11.670;2023-03-13T14:02:22;1.05;;;0.90;;
19260;SDS011;9764;48.114;11.670;2023-03-13T14:05:00;1.52;;;1.00;;
19260;SDS011;9764;48.114;11.670;2023-03-13T14:07:42;1.52;;;0.77;;
19260;SDS011;9764;48.114;11.670;2023-03-13T14:10:18;1.08;;;0.80;;
19260;SDS011;9764;48.114;11.670;2023-03-13T14:12:55;2.10;;;0.80;;
19260;SDS011;9764;48.114;11.670;2023-03-13T14:15:25;0.70;;;0.70;;
19260;SDS011;9764;48.114;11.670;2023-03-13T14:17:56;2.30;;;0.90;;
19260;SDS011;9764;48.114;11.670;2023-03-13T14:20:29;0.90;;;0.80;;
19260;SDS011;9764;48.114;11.670;2023-03-13T14:22:59;2.60;;;0.85;;
19260;SDS011;9764;48.114;11.670;2023-03-13T14:28:17;1.25;;;0.73;;
19260;SDS011;9764;48.114;11.670;2023-03-13T14:30:48;1.17;;;0.80;;
19260;SDS011;9764;48.114;11.670;2023-03-13T14:33:18;2.17;;;1.00;;
19260;SDS011;9764;48.114;11.670;2023-03-13T14:35:47;1.10;;;0.70;;
19260;SDS011;9764;48.114;11.670;2023-03-13T14:38:17;2.47;;;0.90;;
19260;SDS011;9764;48.114;11.670;2023-03-13T14:40:47;1.15;;;0.73;;
19260;SDS011;9764;48.114;11.670;2023-03-13T14:43:20;0.95;;;0.70;;
19260;SDS011;9764;48.114;11.670;2023-03-13T14:45:54;1.95;;;0.88;;
19260;SDS011;9764;48.114;11.670;2023-03-13T14:48:26;0.75;;;0.65;;
19260;SDS011;9764;48.114;11.670;2023-03-13T14:51:02;0.98;;;0.88;;
19260;SDS011;9764;48.114;11.670;2023-03-13T14:53:51;1.45;;;0.70;;
19260;SDS011;9764;48.114;11.670;2023-03-13T14:56:29;1.40;;;0.60;;
19260;SDS011;9764;48.114;11.670;2023-03-13T14:59:07;0.77;;;0.70;;
19260;SDS011;9764;48.114;11.670;2023-03-13T15:01:43;1.60;;;0.73;;
19260;SDS011;9764;48.114;11.670;2023-03-13T15:04:12;0.80;;;0.80;;
19260;SDS011;9764;48.114;11.670;2023-03-13T15:06:41;1.63;;;0.80;;
19260;SDS011;9764;48.114;11.670;2023-03-13T15:09:14;1.42;;;0.90;;
19260;SDS011;9764;48.114;11.670;2023-03-13T15:11:52;0.75;;;0.70;;
19260;SDS011;9764;48.114;11.670;2023-03-13T15:14:33;1.67;;;0.70;;
19260;SDS011;9764;48.114;11.670;2023-03-13T15:17:05;0.90;;;0.70;;
19260;SDS011;9764;48.114;11.670;2023-03-13T15:19:46;0.90;;;0.57;;
19260;SDS011;9764;48.114;11.670;2023-03-13T15:22:17;1.60;;;0.70;;
19260;SDS011;9764;48.114;11.670;2023-03-13T15:24:48;0.80;;;0.80;;
19260;SDS011;9764;48.114;11.670;2023-03-13T15:27:31;1.05;;;0.65;;
19260;SDS011;9764;48.114;11.670;2023-03-13T15:30:02;1.05;;;0.70;;
19260;SDS011;9764;48.114;11.670;2023-03-13T15:32:32;0.80;;;0.80;;
19260;SDS011;9764;48.114;11.670;2023-03-13T15:35:05;1.63;;;0.80;;
19260;SDS011;9764;48.114;11.670;2023-03-13T15:37:49;1.25;;;0.60;;
19260;SDS011;9764;48.114;11.670;2023-03-13T15:40:18;0.57;;;0.55;;
19260;SDS011;9764;48.114;11.670;2023-03-13T15:42:46;1.20;;;0.85;;
19260;SDS011;9764;48.114;11.670;2023-03-13T15:45:15;0.70;;;0.70;;
19260;SDS011;9764;48.114;11.670;2023-03-13T15:47:43;2.08;;;0.70;;
19260;SDS011;9764;48.114;11.670;2023-03-13T15:50:14;0.60;;;0.60;;
19260;SDS011;9764;48.114;11.670;2023-03-13T15:52:44;1.83;;;0.80;;
19260;SDS011;9764;48.114;11.670;2023-03-13T15:55:14;1.10;;;0.70;;
19260;SDS011;9764;48.114;11.670;2023-03-13T15:57:43;0.55;;;0.55;;